createdAt,value
2023-03-05T00:04:49.626Z,98005.32
2023-03-05T00:09:57.049Z,97999.54
2023-03-05T00:15:03.950Z,98001.58
2023-03-05T00:20:12.377Z,97997.75
2023-03-05T00:25:20.158Z,97994.77
2023-03-05T00:30:27.323Z,97989.48
2023-03-05T00:35:35.238Z,97985.48
2023-03-05T00:40:43.774Z,97981.10
2023-03-05T00:45:51.059Z,97973.76
2023-03-05T00:50:58.218Z,97970.09
2023-03-05T00:56:05.772Z,97969.17
2023-03-05T01:01:13.261Z,97962.14
2023-03-05T01:06:20.959Z,97959.95
2023-03-05T01:11:28.334Z,97951.91
2023-03-05T01:16:35.992Z,97947.37
2023-03-05T01:21:44.095Z,97942.46
2023-03-05T01:26:51.580Z,97942.77
2023-03-05T01:31:59.109Z,97938.86
2023-03-05T01:37:06.613Z,97935.12
2023-03-05T01:42:13.969Z,97935.67
2023-03-05T01:47:21.254Z,97932.92
2023-03-05T01:52:29.986Z,97930.35
2023-03-05T01:57:38.580Z,97925.13
2023-03-05T02:02:46.443Z,97930.96
2023-03-05T02:07:53.980Z,97922.55
2023-03-05T02:13:03.298Z,97921.22
2023-03-05T02:18:11.554Z,97914.81
2023-03-05T02:23:19.412Z,97913.71
2023-03-05T02:28:28.705Z,97906.30
2023-03-05T02:33:35.828Z,97901.47
2023-03-05T02:38:43.540Z,97898.04
2023-03-05T02:43:50.806Z,97892.34
2023-03-05T02:48:57.951Z,97896.23
2023-03-05T02:54:05.427Z,97897.96
2023-03-05T02:59:12.984Z,97904.58
2023-03-05T03:04:20.785Z,97902.08
2023-03-05T03:09:28.145Z,97898.65
2023-03-05T03:14:39.729Z,97889.99
2023-03-05T03:19:47.635Z,97883.28
2023-03-05T03:24:55.549Z,97885.37
2023-03-05T03:30:05.168Z,97884.23
2023-03-05T03:35:13.263Z,97879.14
2023-03-05T03:40:20.700Z,97875.93
2023-03-05T03:45:27.940Z,97875.77
2023-03-05T03:50:35.133Z,97875.70
2023-03-05T03:55:43.054Z,97873.05
2023-03-05T04:00:50.184Z,97862.98
2023-03-05T04:05:57.483Z,97858.92
2023-03-05T04:11:04.793Z,97856.42
2023-03-05T04:16:12.333Z,97849.71
2023-03-05T04:21:19.582Z,97847.67
2023-03-05T04:26:27.188Z,97840.43
2023-03-05T04:31:34.662Z,97827.31
2023-03-05T04:36:42.252Z,97823.81
2023-03-05T04:41:49.718Z,97817.55
2023-03-05T04:46:57.328Z,97810.07
2023-03-05T04:52:04.683Z,97810.54
2023-03-05T04:57:12.177Z,97818.02
2023-03-05T05:02:19.708Z,97838.94
2023-03-05T05:07:26.908Z,97834.56
2023-03-05T05:12:34.236Z,97834.18
2023-03-05T05:17:41.508Z,97833.55
2023-03-05T05:22:48.867Z,97835.43
2023-03-05T05:27:56.107Z,97832.54
2023-03-05T05:33:03.680Z,97832.69
2023-03-05T05:38:11.310Z,97820.98
2023-03-05T05:43:18.872Z,97814.21
2023-03-05T05:48:26.426Z,97814.82
2023-03-05T05:53:33.847Z,97824.27
2023-03-05T05:58:42.114Z,97827.92
2023-03-05T06:03:49.482Z,97826.97
2023-03-05T06:08:56.912Z,97823.14
2023-03-05T06:14:04.298Z,97819.86
2023-03-05T06:19:13.405Z,97810.11
2023-03-05T06:24:21.123Z,97811.98
2023-03-05T06:29:28.703Z,97804.48
2023-03-05T06:34:35.713Z,97794.11
2023-03-05T06:39:42.921Z,97793.73
2023-03-05T06:44:50.234Z,97788.18
2023-03-05T06:49:57.434Z,97790.99
2023-03-05T06:55:05.070Z,97794.27
2023-03-05T07:00:13.390Z,97787.86
2023-03-05T07:05:20.977Z,97780.63
2023-03-05T07:10:28.232Z,97774.22
2023-03-05T07:15:35.435Z,97778.44
2023-03-05T07:20:43.041Z,97769.23
2023-03-05T07:25:50.601Z,97770.31
2023-03-05T07:31:01.849Z,97765.95
2023-03-05T07:36:10.152Z,97761.52
2023-03-05T07:41:20.112Z,97741.06
2023-03-05T07:46:28.552Z,97746.52
2023-03-05T07:51:35.930Z,97751.45
2023-03-05T07:56:43.425Z,97750.74
2023-03-05T08:01:50.615Z,97752.55
2023-03-05T08:06:58.212Z,97746.84
2023-03-05T08:12:05.714Z,97741.30
2023-03-05T08:17:13.069Z,97736.86
2023-03-05T08:22:23.573Z,97731.08
2023-03-05T08:27:30.833Z,97728.11
2023-03-05T08:32:38.406Z,97728.52
2023-03-05T08:37:45.718Z,97725.23
2023-03-05T08:42:53.107Z,97722.67
2023-03-05T08:48:00.255Z,97714.95
2023-03-05T08:53:07.744Z,97711.66
2023-03-05T08:58:15.172Z,97701.29
2023-03-05T09:03:22.533Z,97699.34
2023-03-05T09:08:29.623Z,97698.70
2023-03-05T09:13:37.374Z,97695.68
2023-03-05T09:18:44.883Z,97689.44
2023-03-05T09:23:52.593Z,97688.18
2023-03-05T09:29:00.025Z,97685.46
2023-03-05T09:34:09.351Z,97694.05
2023-03-05T09:39:16.939Z,97696.61
2023-03-05T09:44:32.786Z,97690.69
2023-03-05T09:49:48.585Z,97690.84
2023-03-05T09:54:57.052Z,97692.55
2023-03-05T10:00:08.566Z,97693.34
2023-03-05T10:05:20.094Z,97694.58
2023-03-05T10:10:28.548Z,97696.45
2023-03-05T10:15:40.969Z,97690.85
2023-03-05T10:21:04.383Z,97688.42
2023-03-05T10:26:17.381Z,97682.49
2023-03-05T10:31:34.409Z,97675.55
2023-03-05T10:36:55.761Z,97669.15
2023-03-05T10:42:08.845Z,97656.98
2023-03-05T10:47:18.731Z,97646.71
2023-03-05T10:52:38.555Z,97638.29
2023-03-05T10:57:46.485Z,97635.39
2023-03-05T11:02:57.742Z,97634.62
2023-03-05T11:08:20.215Z,97627.76
2023-03-05T11:13:29.633Z,97622.52
2023-03-05T11:18:38.146Z,97616.29
2023-03-05T11:23:45.770Z,97611.30
2023-03-05T11:29:00.993Z,97614.89
2023-03-05T11:34:09.586Z,97604.06
2023-03-05T11:39:19.842Z,97594.23
2023-03-05T11:44:28.818Z,97595.70
2023-03-05T11:49:42.249Z,97592.83
2023-03-05T11:54:58.948Z,97581.66
2023-03-05T12:00:11.843Z,97583.85
2023-03-05T12:05:19.554Z,97586.81
2023-03-05T12:10:28.088Z,97589.08
2023-03-05T12:15:39.997Z,97589.31
2023-03-05T12:20:50.442Z,97575.76
2023-03-05T12:25:59.668Z,97571.08
2023-03-05T12:31:07.610Z,97565.14
2023-03-05T12:36:43.726Z,97562.09
2023-03-05T12:41:51.413Z,97550.17
2023-03-05T12:47:27.048Z,97538.94
2023-03-05T12:52:35.487Z,97553.83
2023-03-05T12:57:44.909Z,97557.34
2023-03-05T13:02:56.537Z,97557.65
2023-03-05T13:08:15.962Z,97558.35
2023-03-05T13:13:23.950Z,97554.54
2023-03-05T13:18:33.059Z,97547.68
2023-03-05T13:23:40.621Z,97543.77
2023-03-05T13:29:05.494Z,97547.13
2023-03-05T13:34:13.917Z,97552.51
2023-03-05T13:39:27.870Z,97560.77
2023-03-05T13:44:36.214Z,97571.30
2023-03-05T13:49:44.527Z,97557.35
2023-03-05T13:54:52.266Z,97550.10
2023-03-05T14:00:00.304Z,97547.92
2023-03-05T14:05:15.866Z,97543.95
2023-03-05T14:10:39.955Z,97534.90
2023-03-05T14:16:04.708Z,97526.02
2023-03-05T14:21:12.721Z,97515.09
2023-03-05T14:26:29.016Z,97510.49
2023-03-05T14:31:39.196Z,97500.84
2023-03-05T14:36:48.629Z,97497.26
2023-03-05T14:41:55.948Z,97493.98
2023-03-05T14:47:03.430Z,97493.60
2023-03-05T14:52:15.472Z,97497.81
2023-03-05T14:57:24.379Z,97488.38
2023-03-05T15:02:31.599Z,97485.90
2023-03-05T15:07:38.989Z,97484.65
2023-03-05T15:12:46.421Z,97475.84
2023-03-05T15:17:55.577Z,97474.29
2023-03-05T15:23:03.018Z,97463.30
2023-03-05T15:28:10.476Z,97455.83
2023-03-05T15:33:18.681Z,97460.35
2023-03-05T15:38:25.925Z,97451.31
2023-03-05T15:43:33.038Z,97454.11
2023-03-05T15:48:41.241Z,97453.58
2023-03-05T15:53:49.498Z,97454.27
2023-03-05T15:58:56.639Z,97451.16
2023-03-05T16:04:04.401Z,97458.48
2023-03-05T16:09:12.070Z,97462.61
2023-03-05T16:14:21.428Z,97468.23
2023-03-05T16:19:29.442Z,97472.91
2023-03-05T16:24:36.762Z,97474.40
2023-03-05T16:29:44.204Z,97475.02
2023-03-05T16:34:51.172Z,97482.58
2023-03-05T16:39:59.558Z,97486.31
2023-03-05T16:45:07.653Z,97493.56
2023-03-05T16:50:15.428Z,97509.94
2023-03-05T16:55:23.304Z,97514.62
2023-03-05T17:00:30.897Z,97523.73
2023-03-05T17:05:39.375Z,97534.56
2023-03-05T17:10:46.691Z,97533.48
2023-03-05T17:15:56.359Z,97529.74
2023-03-05T17:21:06.035Z,97530.12
2023-03-05T17:26:14.492Z,97523.96
2023-03-05T17:31:21.962Z,97521.48
2023-03-05T17:36:29.451Z,97532.16
2023-03-05T17:41:36.962Z,97527.70
2023-03-05T17:46:44.495Z,97526.70
2023-03-05T17:51:52.194Z,97523.27
2023-03-05T17:57:01.132Z,97513.14
2023-03-05T18:02:28.936Z,97509.09
2023-03-05T18:07:36.263Z,97506.98
2023-03-05T18:12:44.051Z,97502.30
2023-03-05T18:17:51.436Z,97498.96
2023-03-05T18:22:59.591Z,97501.22
2023-03-05T18:28:07.962Z,97503.71
2023-03-05T18:33:17.431Z,97502.86
2023-03-05T18:38:25.167Z,97507.38
2023-03-05T18:43:32.561Z,97509.17
2023-03-05T18:48:40.452Z,97511.83
2023-03-05T18:53:47.982Z,97502.25
2023-03-05T18:58:56.969Z,97505.75
2023-03-05T19:04:06.085Z,97507.77
2023-03-05T19:09:53.730Z,97504.73
2023-03-05T19:15:01.355Z,97504.95
2023-03-05T19:20:09.389Z,97508.95
2023-03-05T19:25:17.053Z,97509.64
2023-03-05T19:30:24.572Z,97505.83
2023-03-05T19:35:32.490Z,97509.81
2023-03-05T19:40:41.804Z,97508.16
2023-03-05T19:45:49.407Z,97501.55
2023-03-05T19:50:56.929Z,97494.61
2023-03-05T19:56:06.633Z,97496.39
2023-03-05T20:01:15.932Z,97500.29
2023-03-05T20:06:24.278Z,97502.40
2023-03-05T20:11:31.559Z,97506.14
2023-03-05T20:16:39.468Z,97502.64
2023-03-05T20:21:47.393Z,97503.96
2023-03-05T20:26:54.920Z,97494.07
2023-03-05T20:32:02.608Z,97490.33
2023-03-05T20:37:10.086Z,97487.45
2023-03-05T20:42:17.690Z,97482.16
2023-03-05T20:47:45.351Z,97476.16
2023-03-05T20:52:52.563Z,97474.52
2023-03-05T20:57:59.618Z,97476.77
2023-03-05T21:03:06.964Z,97472.96
2023-03-05T21:08:13.996Z,97466.96
2023-03-05T21:13:21.634Z,97458.02
2023-03-05T21:18:30.095Z,97452.18
2023-03-05T21:23:37.469Z,97445.39
2023-03-05T21:28:44.759Z,97441.73
2023-03-05T21:33:52.076Z,97433.95
2023-03-05T21:39:00.887Z,97435.73
2023-03-05T21:44:09.634Z,97437.52
2023-03-05T21:49:18.092Z,97437.45
2023-03-05T21:54:28.942Z,97435.48
2023-03-05T21:59:36.698Z,97427.33
2023-03-05T22:04:43.910Z,97411.59
2023-03-05T22:09:55.405Z,97402.55
2023-03-05T22:15:03.027Z,97409.18
2023-03-05T22:20:11.580Z,97401.39
2023-03-05T22:25:19.473Z,97405.30
2023-03-05T22:30:27.321Z,97400.85
2023-03-05T22:35:34.803Z,97395.55
2023-03-05T22:40:44.767Z,97400.77
2023-03-05T22:45:52.443Z,97397.65
2023-03-05T22:50:59.746Z,97399.38
2023-03-05T22:56:09.711Z,97402.41
2023-03-05T23:01:17.931Z,97401.02
2023-03-05T23:06:24.906Z,97396.41
2023-03-05T23:11:31.934Z,97396.41
2023-03-05T23:16:39.093Z,97394.94
2023-03-05T23:21:46.401Z,97393.77
2023-03-05T23:26:53.797Z,97394.95
2023-03-05T23:32:01.024Z,97397.13
2023-03-05T23:37:08.204Z,97397.50
2023-03-05T23:42:15.321Z,97395.64
2023-03-05T23:47:22.239Z,97396.10
2023-03-05T23:52:29.736Z,97391.05
2023-03-05T23:57:37.520Z,97391.60
